Briefing drone pour Chevigny-saint-sauveur

Rechercher une autre localisation

Conditions de vol :


Nous sommes le : Vendredi 22 septembre 2023
Il est 14:24 UTC (16:24 LT)

Lever de soleil : 04:59 UTC (06:59 LT)
Coucher de soleil : 18:05 UTC (20:05 LT)

Météo

L'essentiel des conditions de vol

VIGILANCE MÉTÉO FRANCE - Côte-dOr (21)
Pas de vigilances particulieres
METAR de LFSD
LFSD 221400Z AUTO 22010KT 170V260 9999 FEW043/// BKN110/// ///CB 17/12 Q1006

Date d'émission: 22/09/2023
Heure d'émission: 14:00 UTC
Vent: 220° (variable du 170° au 260°) pour 10 KT (19 km/h)
Visibilité horizontale: > 10 km
Plafond :
- Peu de nuages à 4300ft (1311m)
- Nuages morcelés à 11000ft (3353m)
Température: 17 °C
Point de rosée: 12 °C
Humidité: 72%
Pression (QNH): 1006 hPa
TAF de LFSD
LFSD 010600Z 0100/0124 CNL

Conditions prévues :

Heure d'émission : Bulletin éffectué le 01 à 00:00 UTC
Prévision : Valide du 01 a 00:00 UTC au 01 a 23:59 UTC
Nuages : à 0ft (0 m)
WEBCAM POUR CHEVIGNY-SAINT-SAUVEUR

Réglementation

Voler en sécurité

CARTES AERONAUTIQUE 1/500.000
CARTE AZBA (Reseau basse altitude)
CARTES VAC (LFSD)
SUP AIP




Chargement des AIP...
NOTAM (CHEVIGNY-SAINT-SAUVEUR + Terrain à proximité / FIR )




Chargement des NOTAMS...
CONTACT PREFECTURE 21
Côte-dOr (21) : [email protected]


Avertissement : Les données mises à disposition sont indicatives. Oxygène Drone ne pourra être tenu responsable de dégâts causés aux biens et aux personnes.